sensor_id;sensor_type;location;lat;lon;timestamp;P1;durP1;ratioP1;P2;durP2;ratioP2
68224;SDS011;57497;43.322;21.932;2023-07-20T00:00:35;11.7;;;3.2;;
68224;SDS011;57497;43.322;21.932;2023-07-20T00:05:34;11.6;;;3.1;;
68224;SDS011;57497;43.322;21.932;2023-07-20T00:10:33;10.1;;;5.2;;
68224;SDS011;57497;43.322;21.932;2023-07-20T00:15:33;7.2;;;2.6;;
68224;SDS011;57497;43.322;21.932;2023-07-20T00:20:33;8.8;;;2.8;;
68224;SDS011;57497;43.322;21.932;2023-07-20T00:25:34;9.7;;;3.1;;
68224;SDS011;57497;43.322;21.932;2023-07-20T00:30:33;9.5;;;2.9;;
68224;SDS011;57497;43.322;21.932;2023-07-20T00:35:33;4.4;;;3.3;;
68224;SDS011;57497;43.322;21.932;2023-07-20T00:40:35;5.3;;;3.1;;
68224;SDS011;57497;43.322;21.932;2023-07-20T00:45:34;8.3;;;2.8;;
68224;SDS011;57497;43.322;21.932;2023-07-20T00:50:33;6.2;;;2.3;;
68224;SDS011;57497;43.322;21.932;2023-07-20T00:55:33;6.6;;;3.5;;
68224;SDS011;57497;43.322;21.932;2023-07-20T01:00:35;8.9;;;2.9;;
68224;SDS011;57497;43.322;21.932;2023-07-20T01:05:37;7.8;;;3.3;;
68224;SDS011;57497;43.322;21.932;2023-07-20T01:10:35;6;;;2.9;;
68224;SDS011;57497;43.322;21.932;2023-07-20T01:15:33;16.5;;;3.5;;
68224;SDS011;57497;43.322;21.932;2023-07-20T01:20:33;11.7;;;4.9;;
68224;SDS011;57497;43.322;21.932;2023-07-20T01:25:34;6;;;3.4;;
68224;SDS011;57497;43.322;21.932;2023-07-20T01:30:37;15.5;;;3.7;;
68224;SDS011;57497;43.322;21.932;2023-07-20T01:35:33;5.7;;;3.6;;
68224;SDS011;57497;43.322;21.932;2023-07-20T01:40:34;14.6;;;3.3;;
68224;SDS011;57497;43.322;21.932;2023-07-20T01:45:33;10.6;;;2.6;;
68224;SDS011;57497;43.322;21.932;2023-07-20T01:50:33;8.2;;;4.3;;
68224;SDS011;57497;43.322;21.932;2023-07-20T01:55:33;6.9;;;3.6;;
68224;SDS011;57497;43.322;21.932;2023-07-20T02:00:36;4.9;;;2.2;;
68224;SDS011;57497;43.322;21.932;2023-07-20T02:05:35;8.8;;;3.1;;
68224;SDS011;57497;43.322;21.932;2023-07-20T02:10:33;7.9;;;3.1;;
68224;SDS011;57497;43.322;21.932;2023-07-20T02:15:33;13.2;;;4;;
68224;SDS011;57497;43.322;21.932;2023-07-20T02:20:33;15.1;;;4.4;;
68224;SDS011;57497;43.322;21.932;2023-07-20T02:25:33;6;;;4.3;;
68224;SDS011;57497;43.322;21.932;2023-07-20T02:30:34;7;;;3.9;;
68224;SDS011;57497;43.322;21.932;2023-07-20T02:35:33;20.5;;;4.5;;
68224;SDS011;57497;43.322;21.932;2023-07-20T02:40:34;15.5;;;3.4;;
68224;SDS011;57497;43.322;21.932;2023-07-20T02:45:33;3.7;;;2.4;;
68224;SDS011;57497;43.322;21.932;2023-07-20T02:50:33;7.1;;;2.9;;
68224;SDS011;57497;43.322;21.932;2023-07-20T02:55:33;17.2;;;3.2;;
68224;SDS011;57497;43.322;21.932;2023-07-20T03:00:35;18.1;;;4.4;;
68224;SDS011;57497;43.322;21.932;2023-07-20T03:05:35;12;;;3.5;;
68224;SDS011;57497;43.322;21.932;2023-07-20T03:10:37;11.1;;;4;;
68224;SDS011;57497;43.322;21.932;2023-07-20T03:15:33;4.7;;;2.8;;
68224;SDS011;57497;43.322;21.932;2023-07-20T03:20:34;16.6;;;4;;
68224;SDS011;57497;43.322;21.932;2023-07-20T03:25:33;10.6;;;3.2;;
68224;SDS011;57497;43.322;21.932;2023-07-20T03:30:34;19.9;;;4.5;;
68224;SDS011;57497;43.322;21.932;2023-07-20T03:35:34;5.2;;;3;;
68224;SDS011;57497;43.322;21.932;2023-07-20T03:40:33;9.8;;;4;;
68224;SDS011;57497;43.322;21.932;2023-07-20T03:45:33;8.8;;;3.7;;
68224;SDS011;57497;43.322;21.932;2023-07-20T03:50:33;19.5;;;8.2;;
68224;SDS011;57497;43.322;21.932;2023-07-20T03:55:34;21.9;;;5.7;;
68224;SDS011;57497;43.322;21.932;2023-07-20T04:00:35;12.8;;;4.9;;
68224;SDS011;57497;43.322;21.932;2023-07-20T04:05:34;18.9;;;8.5;;
68224;SDS011;57497;43.322;21.932;2023-07-20T04:10:33;17.8;;;7;;
68224;SDS011;57497;43.322;21.932;2023-07-20T04:15:33;9.9;;;4.2;;
68224;SDS011;57497;43.322;21.932;2023-07-20T04:20:33;12.7;;;5.4;;
68224;SDS011;57497;43.322;21.932;2023-07-20T04:25:33;13.3;;;6.3;;
68224;SDS011;57497;43.322;21.932;2023-07-20T04:30:34;12.8;;;4.5;;
68224;SDS011;57497;43.322;21.932;2023-07-20T04:35:50;10.4;;;3.8;;
68224;SDS011;57497;43.322;21.932;2023-07-20T04:40:33;12.3;;;3.5;;
68224;SDS011;57497;43.322;21.932;2023-07-20T04:45:33;15;;;3.4;;
68224;SDS011;57497;43.322;21.932;2023-07-20T04:50:33;15.3;;;5;;
68224;SDS011;57497;43.322;21.932;2023-07-20T04:55:34;8.3;;;3.4;;
68224;SDS011;57497;43.322;21.932;2023-07-20T05:00:37;9.6;;;4.1;;
68224;SDS011;57497;43.322;21.932;2023-07-20T05:05:35;25.8;;;7.5;;
68224;SDS011;57497;43.322;21.932;2023-07-20T05:10:33;7.6;;;4.5;;
68224;SDS011;57497;43.322;21.932;2023-07-20T05:15:33;8.8;;;3.4;;
68224;SDS011;57497;43.322;21.932;2023-07-20T05:20:34;12.4;;;4.2;;
68224;SDS011;57497;43.322;21.932;2023-07-20T05:25:33;9.7;;;4.7;;
68224;SDS011;57497;43.322;21.932;2023-07-20T05:30:33;18.9;;;8.6;;
68224;SDS011;57497;43.322;21.932;2023-07-20T05:35:33;11.6;;;7.7;;
68224;SDS011;57497;43.322;21.932;2023-07-20T05:40:33;15.4;;;6.3;;
68224;SDS011;57497;43.322;21.932;2023-07-20T05:45:33;10.5;;;4.6;;
68224;SDS011;57497;43.322;21.932;2023-07-20T05:50:34;12.5;;;3.7;;
68224;SDS011;57497;43.322;21.932;2023-07-20T05:55:33;12.7;;;3.7;;
68224;SDS011;57497;43.322;21.932;2023-07-20T06:00:34;6.8;;;3.5;;
68224;SDS011;57497;43.322;21.932;2023-07-20T06:05:34;22.9;;;3.8;;
68224;SDS011;57497;43.322;21.932;2023-07-20T06:10:34;3.5;;;2.1;;
68224;SDS011;57497;43.322;21.932;2023-07-20T06:15:33;5.5;;;4.7;;
68224;SDS011;57497;43.322;21.932;2023-07-20T06:20:33;11.4;;;3.6;;
68224;SDS011;57497;43.322;21.932;2023-07-20T06:25:33;11.4;;;4.4;;
68224;SDS011;57497;43.322;21.932;2023-07-20T06:30:34;5.4;;;3.2;;
68224;SDS011;57497;43.322;21.932;2023-07-20T06:35:33;7.1;;;3.1;;
68224;SDS011;57497;43.322;21.932;2023-07-20T06:40:33;4.2;;;3;;
68224;SDS011;57497;43.322;21.932;2023-07-20T06:45:33;15.2;;;3.2;;
68224;SDS011;57497;43.322;21.932;2023-07-20T06:50:34;9;;;4.2;;
68224;SDS011;57497;43.322;21.932;2023-07-20T06:55:33;17.2;;;4.1;;
68224;SDS011;57497;43.322;21.932;2023-07-20T07:00:34;9.1;;;4.6;;
68224;SDS011;57497;43.322;21.932;2023-07-20T07:05:35;4;;;2.5;;
68224;SDS011;57497;43.322;21.932;2023-07-20T07:10:34;13.9;;;4.2;;
68224;SDS011;57497;43.322;21.932;2023-07-20T07:15:33;6.3;;;3.9;;
68224;SDS011;57497;43.322;21.932;2023-07-20T07:20:34;14;;;3;;
68224;SDS011;57497;43.322;21.932;2023-07-20T07:25:33;15.7;;;4.3;;
68224;SDS011;57497;43.322;21.932;2023-07-20T07:30:33;11.6;;;3.3;;
68224;SDS011;57497;43.322;21.932;2023-07-20T07:35:33;13.1;;;3.7;;
68224;SDS011;57497;43.322;21.932;2023-07-20T07:40:33;12.2;;;4.5;;
68224;SDS011;57497;43.322;21.932;2023-07-20T07:45:34;16.4;;;4.3;;
68224;SDS011;57497;43.322;21.932;2023-07-20T07:50:33;27.6;;;6.4;;
68224;SDS011;57497;43.322;21.932;2023-07-20T07:55:34;12.8;;;3.8;;
68224;SDS011;57497;43.322;21.932;2023-07-20T08:00:34;15.5;;;4.5;;
68224;SDS011;57497;43.322;21.932;2023-07-20T08:05:34;8.8;;;3.9;;
68224;SDS011;57497;43.322;21.932;2023-07-20T08:10:33;13.4;;;4.3;;
68224;SDS011;57497;43.322;21.932;2023-07-20T08:15:34;7.1;;;3.7;;
68224;SDS011;57497;43.322;21.932;2023-07-20T08:20:33;5.2;;;3.3;;
68224;SDS011;57497;43.322;21.932;2023-07-20T08:25:33;11;;;4.6;;
68224;SDS011;57497;43.322;21.932;2023-07-20T08:30:39;19.8;;;4.3;;
68224;SDS011;57497;43.322;21.932;2023-07-20T08:35:33;10.1;;;4;;
68224;SDS011;57497;43.322;21.932;2023-07-20T08:40:33;18.9;;;7.3;;
68224;SDS011;57497;43.322;21.932;2023-07-20T08:45:34;8;;;4.1;;
68224;SDS011;57497;43.322;21.932;2023-07-20T08:50:34;10.5;;;4.5;;
68224;SDS011;57497;43.322;21.932;2023-07-20T08:55:34;24.7;;;5.3;;
68224;SDS011;57497;43.322;21.932;2023-07-20T09:00:34;10.1;;;3.4;;
68224;SDS011;57497;43.322;21.932;2023-07-20T09:05:34;15.8;;;4.8;;
68224;SDS011;57497;43.322;21.932;2023-07-20T09:10:33;13;;;8.1;;
68224;SDS011;57497;43.322;21.932;2023-07-20T09:15:33;10.2;;;6.8;;
68224;SDS011;57497;43.322;21.932;2023-07-20T09:20:34;7.2;;;3.4;;
68224;SDS011;57497;43.322;21.932;2023-07-20T09:25:33;10.1;;;4.6;;
68224;SDS011;57497;43.322;21.932;2023-07-20T09:30:33;8.7;;;4.2;;
68224;SDS011;57497;43.322;21.932;2023-07-20T09:35:33;7.8;;;3.7;;
68224;SDS011;57497;43.322;21.932;2023-07-20T09:40:37;10.2;;;5.2;;
68224;SDS011;57497;43.322;21.932;2023-07-20T09:45:33;7;;;3.7;;
68224;SDS011;57497;43.322;21.932;2023-07-20T09:50:34;19;;;6.8;;
68224;SDS011;57497;43.322;21.932;2023-07-20T09:55:33;13.1;;;4.1;;
68224;SDS011;57497;43.322;21.932;2023-07-20T10:00:35;5.8;;;4;;
68224;SDS011;57497;43.322;21.932;2023-07-20T10:05:35;12.8;;;5.3;;
68224;SDS011;57497;43.322;21.932;2023-07-20T10:10:33;8.2;;;3.8;;
68224;SDS011;57497;43.322;21.932;2023-07-20T10:15:34;9.7;;;4.8;;
68224;SDS011;57497;43.322;21.932;2023-07-20T10:20:33;12.8;;;4.1;;
68224;SDS011;57497;43.322;21.932;2023-07-20T10:25:33;8.3;;;3.5;;
68224;SDS011;57497;43.322;21.932;2023-07-20T10:30:34;7.7;;;4.3;;
68224;SDS011;57497;43.322;21.932;2023-07-20T10:35:50;12.8;;;4.3;;
68224;SDS011;57497;43.322;21.932;2023-07-20T10:40:34;4.7;;;2.9;;
68224;SDS011;57497;43.322;21.932;2023-07-20T10:45:34;13;;;4.4;;
68224;SDS011;57497;43.322;21.932;2023-07-20T10:50:34;19.7;;;7.6;;
68224;SDS011;57497;43.322;21.932;2023-07-20T10:55:33;10.3;;;4.6;;
68224;SDS011;57497;43.322;21.932;2023-07-20T11:00:34;7;;;3.5;;
68224;SDS011;57497;43.322;21.932;2023-07-20T11:05:35;15.1;;;4.3;;
68224;SDS011;57497;43.322;21.932;2023-07-20T11:10:33;11.2;;;3.9;;
68224;SDS011;57497;43.322;21.932;2023-07-20T11:15:44;14.2;;;3.9;;
68224;SDS011;57497;43.322;21.932;2023-07-20T11:20:33;6.3;;;4.2;;
68224;SDS011;57497;43.322;21.932;2023-07-20T11:25:37;10.4;;;4.3;;
68224;SDS011;57497;43.322;21.932;2023-07-20T11:30:33;9.2;;;4.6;;
68224;SDS011;57497;43.322;21.932;2023-07-20T11:35:34;9.7;;;4.8;;
68224;SDS011;57497;43.322;21.932;2023-07-20T11:40:33;10.5;;;3.9;;
68224;SDS011;57497;43.322;21.932;2023-07-20T11:45:33;7.8;;;3.5;;
68224;SDS011;57497;43.322;21.932;2023-07-20T11:50:38;6.2;;;3.3;;
68224;SDS011;57497;43.322;21.932;2023-07-20T11:55:33;7.1;;;3.7;;
68224;SDS011;57497;43.322;21.932;2023-07-20T12:00:37;8.1;;;2.8;;
68224;SDS011;57497;43.322;21.932;2023-07-20T12:05:34;7.9;;;4.1;;
68224;SDS011;57497;43.322;21.932;2023-07-20T12:10:33;7.9;;;3.6;;
68224;SDS011;57497;43.322;21.932;2023-07-20T12:15:33;7.8;;;4;;
68224;SDS011;57497;43.322;21.932;2023-07-20T12:20:34;16.2;;;3.6;;
68224;SDS011;57497;43.322;21.932;2023-07-20T12:25:34;4.6;;;4.1;;
68224;SDS011;57497;43.322;21.932;2023-07-20T12:30:33;11.3;;;4.1;;
68224;SDS011;57497;43.322;21.932;2023-07-20T12:35:34;5.7;;;3.7;;
68224;SDS011;57497;43.322;21.932;2023-07-20T12:40:34;9.2;;;5.3;;
68224;SDS011;57497;43.322;21.932;2023-07-20T12:45:33;7.9;;;4;;
68224;SDS011;57497;43.322;21.932;2023-07-20T12:50:33;8.8;;;3.1;;
68224;SDS011;57497;43.322;21.932;2023-07-20T12:55:33;4.6;;;3.1;;
68224;SDS011;57497;43.322;21.932;2023-07-20T13:00:34;14.5;;;3.7;;
68224;SDS011;57497;43.322;21.932;2023-07-20T13:05:35;5.3;;;3;;
68224;SDS011;57497;43.322;21.932;2023-07-20T13:10:33;7.3;;;3.4;;
68224;SDS011;57497;43.322;21.932;2023-07-20T13:15:40;12.8;;;4.2;;
68224;SDS011;57497;43.322;21.932;2023-07-20T13:20:33;9.9;;;3.8;;
68224;SDS011;57497;43.322;21.932;2023-07-20T13:25:33;28.5;;;4.7;;
68224;SDS011;57497;43.322;21.932;2023-07-20T13:30:33;8;;;5.2;;
68224;SDS011;57497;43.322;21.932;2023-07-20T13:35:33;9.2;;;5.2;;
68224;SDS011;57497;43.322;21.932;2023-07-20T13:40:33;20.6;;;4.4;;
68224;SDS011;57497;43.322;21.932;2023-07-20T13:45:33;8.8;;;4.2;;
68224;SDS011;57497;43.322;21.932;2023-07-20T13:50:33;9.1;;;3.7;;
68224;SDS011;57497;43.322;21.932;2023-07-20T13:55:33;16.6;;;4.7;;
68224;SDS011;57497;43.322;21.932;2023-07-20T14:00:35;7.3;;;3.9;;
68224;SDS011;57497;43.322;21.932;2023-07-20T14:05:34;6.8;;;3.9;;
68224;SDS011;57497;43.322;21.932;2023-07-20T14:10:34;5.2;;;3.7;;
68224;SDS011;57497;43.322;21.932;2023-07-20T14:15:33;8.9;;;3.6;;
68224;SDS011;57497;43.322;21.932;2023-07-20T14:20:33;8.4;;;4;;
68224;SDS011;57497;43.322;21.932;2023-07-20T14:25:34;7.7;;;4.2;;
68224;SDS011;57497;43.322;21.932;2023-07-20T14:30:33;14.4;;;3.7;;
68224;SDS011;57497;43.322;21.932;2023-07-20T14:35:33;11.9;;;4.3;;
68224;SDS011;57497;43.322;21.932;2023-07-20T14:40:33;9.2;;;5.4;;
68224;SDS011;57497;43.322;21.932;2023-07-20T14:45:33;8.2;;;4.9;;
68224;SDS011;57497;43.322;21.932;2023-07-20T14:50:33;12;;;4.7;;
68224;SDS011;57497;43.322;21.932;2023-07-20T14:55:34;9.4;;;4.8;;
68224;SDS011;57497;43.322;21.932;2023-07-20T15:00:34;8.4;;;4.4;;
68224;SDS011;57497;43.322;21.932;2023-07-20T15:05:33;7.2;;;4.1;;
68224;SDS011;57497;43.322;21.932;2023-07-20T15:10:34;8.1;;;5.2;;
68224;SDS011;57497;43.322;21.932;2023-07-20T15:15:33;5.5;;;3.9;;
68224;SDS011;57497;43.322;21.932;2023-07-20T15:20:34;6.8;;;4.4;;
68224;SDS011;57497;43.322;21.932;2023-07-20T15:25:33;6.2;;;4.2;;
68224;SDS011;57497;43.322;21.932;2023-07-20T15:30:33;7;;;4.2;;
68224;SDS011;57497;43.322;21.932;2023-07-20T15:35:33;8.1;;;5.5;;
68224;SDS011;57497;43.322;21.932;2023-07-20T15:40:33;12.3;;;5.6;;
68224;SDS011;57497;43.322;21.932;2023-07-20T15:45:33;5.8;;;4.1;;
68224;SDS011;57497;43.322;21.932;2023-07-20T15:50:33;15.2;;;5.6;;
68224;SDS011;57497;43.322;21.932;2023-07-20T15:55:33;11.9;;;5.6;;
68224;SDS011;57497;43.322;21.932;2023-07-20T16:00:34;6.9;;;5.5;;
68224;SDS011;57497;43.322;21.932;2023-07-20T16:05:35;9.1;;;5;;
68224;SDS011;57497;43.322;21.932;2023-07-20T16:10:33;7.5;;;5.8;;
68224;SDS011;57497;43.322;21.932;2023-07-20T16:15:33;7.1;;;4.9;;
68224;SDS011;57497;43.322;21.932;2023-07-20T16:20:33;11.2;;;6.1;;
68224;SDS011;57497;43.322;21.932;2023-07-20T16:25:34;11;;;5.8;;
68224;SDS011;57497;43.322;21.932;2023-07-20T16:30:33;22.8;;;7.3;;
68224;SDS011;57497;43.322;21.932;2023-07-20T16:35:35;9.1;;;6.1;;
68224;SDS011;57497;43.322;21.932;2023-07-20T16:40:35;12.8;;;4.8;;
68224;SDS011;57497;43.322;21.932;2023-07-20T16:45:34;14.5;;;5;;
68224;SDS011;57497;43.322;21.932;2023-07-20T16:50:34;7.6;;;4.6;;
68224;SDS011;57497;43.322;21.932;2023-07-20T16:55:33;16.3;;;7;;
68224;SDS011;57497;43.322;21.932;2023-07-20T17:00:34;9;;;4.8;;
68224;SDS011;57497;43.322;21.932;2023-07-20T17:05:35;10.5;;;6.1;;
68224;SDS011;57497;43.322;21.932;2023-07-20T17:10:33;11.7;;;4.6;;
68224;SDS011;57497;43.322;21.932;2023-07-20T17:15:34;11.5;;;5.4;;
68224;SDS011;57497;43.322;21.932;2023-07-20T17:20:33;8;;;4.6;;
68224;SDS011;57497;43.322;21.932;2023-07-20T17:25:33;7.5;;;4.2;;
68224;SDS011;57497;43.322;21.932;2023-07-20T17:30:33;9.6;;;4.9;;
68224;SDS011;57497;43.322;21.932;2023-07-20T17:35:34;25.6;;;5.5;;
68224;SDS011;57497;43.322;21.932;2023-07-20T17:40:33;7.3;;;4.3;;
68224;SDS011;57497;43.322;21.932;2023-07-20T17:45:33;10.1;;;6;;
68224;SDS011;57497;43.322;21.932;2023-07-20T17:50:33;20.8;;;5;;
68224;SDS011;57497;43.322;21.932;2023-07-20T17:55:33;7.8;;;4.2;;
68224;SDS011;57497;43.322;21.932;2023-07-20T18:00:35;8.7;;;5.5;;
68224;SDS011;57497;43.322;21.932;2023-07-20T18:05:34;9.5;;;5.5;;
68224;SDS011;57497;43.322;21.932;2023-07-20T18:10:33;9.4;;;6;;
68224;SDS011;57497;43.322;21.932;2023-07-20T18:15:33;13.6;;;6.4;;
68224;SDS011;57497;43.322;21.932;2023-07-20T18:20:33;10.8;;;6.9;;
68224;SDS011;57497;43.322;21.932;2023-07-20T18:25:33;11.9;;;6.7;;
68224;SDS011;57497;43.322;21.932;2023-07-20T18:30:33;7;;;6.3;;
68224;SDS011;57497;43.322;21.932;2023-07-20T18:35:34;11;;;6.7;;
68224;SDS011;57497;43.322;21.932;2023-07-20T18:40:33;12.2;;;10.1;;
68224;SDS011;57497;43.322;21.932;2023-07-20T18:45:33;12.6;;;7;;
68224;SDS011;57497;43.322;21.932;2023-07-20T18:50:33;13.3;;;8.3;;
68224;SDS011;57497;43.322;21.932;2023-07-20T18:55:34;27.2;;;8.2;;
68224;SDS011;57497;43.322;21.932;2023-07-20T19:00:34;12.8;;;9.5;;
68224;SDS011;57497;43.322;21.932;2023-07-20T19:05:34;8.5;;;6.7;;
68224;SDS011;57497;43.322;21.932;2023-07-20T19:10:33;15.6;;;8;;
68224;SDS011;57497;43.322;21.932;2023-07-20T19:15:33;11.3;;;6.9;;
68224;SDS011;57497;43.322;21.932;2023-07-20T19:20:34;14.6;;;7.5;;
68224;SDS011;57497;43.322;21.932;2023-07-20T19:25:33;7.4;;;6;;
68224;SDS011;57497;43.322;21.932;2023-07-20T19:30:33;26.4;;;12.9;;
68224;SDS011;57497;43.322;21.932;2023-07-20T19:35:33;19;;;7.4;;
68224;SDS011;57497;43.322;21.932;2023-07-20T19:40:34;15.6;;;10.1;;
68224;SDS011;57497;43.322;21.932;2023-07-20T19:45:33;16.5;;;9.4;;
68224;SDS011;57497;43.322;21.932;2023-07-20T19:50:33;14.6;;;10.1;;
68224;SDS011;57497;43.322;21.932;2023-07-20T19:55:33;11.4;;;8.1;;
68224;SDS011;57497;43.322;21.932;2023-07-20T20:00:37;14.6;;;9;;
68224;SDS011;57497;43.322;21.932;2023-07-20T20:05:35;10.1;;;7.9;;
68224;SDS011;57497;43.322;21.932;2023-07-20T20:10:33;12.3;;;7.1;;
68224;SDS011;57497;43.322;21.932;2023-07-20T20:15:34;22.4;;;10.7;;
68224;SDS011;57497;43.322;21.932;2023-07-20T20:20:34;15.8;;;12.2;;
68224;SDS011;57497;43.322;21.932;2023-07-20T20:25:34;23.2;;;10.2;;
68224;SDS011;57497;43.322;21.932;2023-07-20T20:30:33;10.2;;;7.8;;
68224;SDS011;57497;43.322;21.932;2023-07-20T20:35:33;12.4;;;9.5;;
68224;SDS011;57497;43.322;21.932;2023-07-20T20:40:33;9.8;;;7.8;;
68224;SDS011;57497;43.322;21.932;2023-07-20T20:45:34;24.4;;;6.8;;
68224;SDS011;57497;43.322;21.932;2023-07-20T20:50:33;11.4;;;6.9;;
68224;SDS011;57497;43.322;21.932;2023-07-20T20:55:33;13.1;;;10.1;;
68224;SDS011;57497;43.322;21.932;2023-07-20T21:00:35;17.5;;;12.1;;
68224;SDS011;57497;43.322;21.932;2023-07-20T21:05:34;23.9;;;14.5;;
68224;SDS011;57497;43.322;21.932;2023-07-20T21:10:33;22.4;;;11;;
68224;SDS011;57497;43.322;21.932;2023-07-20T21:15:34;14.2;;;10;;
68224;SDS011;57497;43.322;21.932;2023-07-20T21:20:33;8.1;;;6.3;;
68224;SDS011;57497;43.322;21.932;2023-07-20T21:25:33;9.6;;;8.2;;
68224;SDS011;57497;43.322;21.932;2023-07-20T21:30:33;15.8;;;9.1;;
68224;SDS011;57497;43.322;21.932;2023-07-20T21:35:33;9.9;;;7.3;;
68224;SDS011;57497;43.322;21.932;2023-07-20T21:40:35;19.8;;;11.2;;
68224;SDS011;57497;43.322;21.932;2023-07-20T21:45:33;16.7;;;8.6;;
68224;SDS011;57497;43.322;21.932;2023-07-20T21:50:33;10.8;;;7.8;;
68224;SDS011;57497;43.322;21.932;2023-07-20T21:55:33;10;;;7.4;;
68224;SDS011;57497;43.322;21.932;2023-07-20T22:00:35;13.2;;;9.1;;
68224;SDS011;57497;43.322;21.932;2023-07-20T22:05:34;14.4;;;8.6;;
68224;SDS011;57497;43.322;21.932;2023-07-20T22:10:33;18.5;;;8.4;;
68224;SDS011;57497;43.322;21.932;2023-07-20T22:15:33;25.2;;;9.9;;
68224;SDS011;57497;43.322;21.932;2023-07-20T22:20:34;10.7;;;9.3;;
68224;SDS011;57497;43.322;21.932;2023-07-20T22:25:33;15.1;;;8.6;;
68224;SDS011;57497;43.322;21.932;2023-07-20T22:30:33;11.9;;;10.8;;
68224;SDS011;57497;43.322;21.932;2023-07-20T22:35:33;11.6;;;9.7;;
68224;SDS011;57497;43.322;21.932;2023-07-20T22:40:33;18.3;;;9.8;;
68224;SDS011;57497;43.322;21.932;2023-07-20T22:45:34;12;;;9.8;;
68224;SDS011;57497;43.322;21.932;2023-07-20T22:50:33;17.3;;;9.4;;
68224;SDS011;57497;43.322;21.932;2023-07-20T22:55:33;11.1;;;10.1;;
68224;SDS011;57497;43.322;21.932;2023-07-20T23:00:37;12.1;;;8.4;;
68224;SDS011;57497;43.322;21.932;2023-07-20T23:05:35;10.7;;;8.8;;
68224;SDS011;57497;43.322;21.932;2023-07-20T23:10:33;11.2;;;8.7;;
68224;SDS011;57497;43.322;21.932;2023-07-20T23:15:33;9.3;;;8.4;;
68224;SDS011;57497;43.322;21.932;2023-07-20T23:20:33;15.3;;;9.3;;
68224;SDS011;57497;43.322;21.932;2023-07-20T23:25:34;15;;;9.2;;
68224;SDS011;57497;43.322;21.932;2023-07-20T23:30:33;15.7;;;8.8;;
68224;SDS011;57497;43.322;21.932;2023-07-20T23:35:33;14.8;;;8.7;;
68224;SDS011;57497;43.322;21.932;2023-07-20T23:40:33;17.5;;;9.3;;
68224;SDS011;57497;43.322;21.932;2023-07-20T23:45:33;16.4;;;9.8;;
68224;SDS011;57497;43.322;21.932;2023-07-20T23:50:33;13.3;;;9;;
68224;SDS011;57497;43.322;21.932;2023-07-20T23:55:33;11.3;;;8.7;;
